Time;durP1;ratioP1;P1;durP2;ratioP2;P2;SDS_P1;SDS_P2;PMS_P1;PMS_P2;Temp;Humidity;BMP_temperature;BMP_pressure;BME280_temperature;BME280_humidity;BME280_pressure;Samples;Min_cycle;Max_cycle;Signal;HPM_P1;HPM_P2
2021/09/04 00:01:05;;;;;;;;;;;;;;;24.23;62.08;101061.66;5134348;28;1902;-48
2021/09/04 00:03:31;;;;;;;;;;;;;;;24.21;61.80;101080.78;5134297;28;1373;-48
2021/09/04 00:05:58;;;;;;;;;;;;;;;24.22;62.09;101068.09;5134360;28;1079;-48
2021/09/04 00:08:24;;;;;;;;;;;;;;;24.19;62.02;101063.88;5133954;28;1098;-48
2021/09/04 00:10:52;;;;;;;;;;;;;;;24.16;61.53;101063.34;5134290;28;1050;-48
2021/09/04 00:13:19;;;;;;;;;;;;;;;24.15;62.36;101054.41;5133939;28;1157;-48
2021/09/04 00:15:45;;;;;;;;;;;;;;;24.19;62.05;101050.38;5134312;28;1030;-49
2021/09/04 00:18:12;;;;;;;;;;;;;;;24.19;61.89;101044.97;5133791;28;1184;-48
2021/09/04 00:20:38;;;;;;;;;;;;;;;24.20;61.57;101053.91;5133873;28;1094;-48
2021/09/04 00:23:05;;;;;;;;;;;;;;;24.16;61.67;101063.34;5133922;28;1902;-48
2021/09/04 00:25:31;;;;;;;;;;;;;;;24.17;62.05;101063.19;5135358;27;1090;-49
2021/09/04 00:28:00;;;;;;;;;;;;;;;24.15;61.42;101056.25;5137983;27;1100;-48
2021/09/04 00:30:26;;;;;;;;;;;;;;;24.17;61.73;101059.63;5137976;27;999;-48
2021/09/04 00:32:53;;;;;;;;;;;;;;;24.16;61.33;101061.50;5137453;27;1085;-49
2021/09/04 00:35:19;;;;;;;;;;;;;;;24.16;62.05;101047.97;5137465;27;1083;-48
2021/09/04 00:37:46;;;;;;;;;;;;;;;24.15;61.79;101059.81;5137782;27;1069;-48
2021/09/04 00:40:13;;;;;;;;;;;;;;;24.19;61.72;101069.28;5137682;27;1003;-48
2021/09/04 00:42:39;;;;;;;;;;;;;;;24.17;61.10;101059.63;5137246;27;1980;-48
2021/09/04 00:45:08;;;;;;;;;;;;;;;24.15;61.51;101064.34;5137495;27;1091;-49
2021/09/04 00:47:34;;;;;;;;;;;;;;;24.20;61.27;101079.06;5137568;27;1001;-49
2021/09/04 00:50:01;;;;;;;;;;;;;;;24.13;61.05;101075.34;5137487;27;1015;-48
2021/09/04 00:52:27;;;;;;;;;;;;;;;24.16;61.55;101063.34;5137329;27;1958;-49
2021/09/04 00:54:54;;;;;;;;;;;;;;;24.15;61.86;101067.91;5137456;27;1091;-48
2021/09/04 00:57:21;;;;;;;;;;;;;;;24.11;61.36;101050.31;5137357;27;1114;-49
2021/09/04 00:59:48;;;;;;;;;;;;;;;24.14;61.01;101060.81;5137034;27;1134;-48
2021/09/04 01:02:16;;;;;;;;;;;;;;;24.16;61.26;101049.84;5137091;27;1975;-49
2021/09/04 01:04:43;;;;;;;;;;;;;;;24.12;62.14;101057.41;5136980;27;1197;-48
2021/09/04 01:07:09;;;;;;;;;;;;;;;24.16;61.39;101060.66;5136900;27;1094;-49
2021/09/04 01:09:36;;;;;;;;;;;;;;;24.15;61.80;101069.75;5137041;27;1033;-49
2021/09/04 01:12:02;;;;;;;;;;;;;;;24.10;61.09;101047.78;5137111;27;1027;-48
2021/09/04 01:14:29;;;;;;;;;;;;;;;24.13;61.83;101064.53;5136755;27;1090;-48
2021/09/04 01:16:55;;;;;;;;;;;;;;;24.14;61.15;101070.78;5136790;27;1092;-49
2021/09/04 01:19:23;;;;;;;;;;;;;;;24.12;61.13;101048.47;5136924;27;1073;-48
2021/09/04 01:21:50;;;;;;;;;;;;;;;24.10;61.11;101051.34;5136412;27;1905;-48
2021/09/04 01:24:16;;;;;;;;;;;;;;;24.13;61.52;101066.38;5136832;27;1000;-48
2021/09/04 01:26:44;;;;;;;;;;;;;;;24.08;61.42;101050.66;5136750;27;1075;-48
2021/09/04 01:29:11;;;;;;;;;;;;;;;24.10;61.50;101056.75;5136383;27;1087;-48
2021/09/04 01:31:37;;;;;;;;;;;;;;;24.15;61.48;101069.75;5136399;27;1137;-48
2021/09/04 01:34:03;;;;;;;;;;;;;;;24.08;61.19;101047.94;5136897;27;1087;-48
2021/09/04 01:36:31;;;;;;;;;;;;;;;24.13;60.85;101067.22;5136283;27;1139;-49
2021/09/04 01:38:57;;;;;;;;;;;;;;;24.08;61.39;101060.63;5136627;27;1049;-49
2021/09/04 01:41:24;;;;;;;;;;;;;;;24.13;61.06;101059.13;5136181;27;1976;-49
2021/09/04 01:43:52;;;;;;;;;;;;;;;24.10;61.57;101059.44;5136119;27;1070;-48
2021/09/04 01:46:19;;;;;;;;;;;;;;;24.10;61.10;101056.75;5136406;27;999;-48
2021/09/04 01:48:45;;;;;;;;;;;;;;;24.09;61.38;101056.88;5136389;27;1071;-48
2021/09/04 01:51:12;;;;;;;;;;;;;;;24.09;61.17;101062.28;5136000;27;1099;-48
2021/09/04 01:53:38;;;;;;;;;;;;;;;24.09;61.12;101055.03;5136273;27;1086;-48
2021/09/04 01:56:05;;;;;;;;;;;;;;;24.12;61.27;101053.88;5136152;27;988;-50
2021/09/04 01:58:31;;;;;;;;;;;;;;;24.10;61.11;101059.44;5135841;27;1177;-48
2021/09/04 02:01:08;;;;;;;;;;;;;;;24.08;61.18;101057.91;5232243;22;3543;-49
2021/09/04 02:03:35;;;;;;;;;;;;;;;24.08;60.85;101042.53;5054784;28;1971;-48
2021/09/04 02:06:02;;;;;;;;;;;;;;;24.06;61.65;101049.97;5054771;28;1068;-48
2021/09/04 02:08:28;;;;;;;;;;;;;;;24.08;61.22;101039.84;5054694;28;1001;-49
2021/09/04 02:10:55;;;;;;;;;;;;;;;24.10;61.43;101053.19;5054747;28;1101;-47
2021/09/04 02:13:21;;;;;;;;;;;;;;;24.06;60.79;101025.66;5054610;28;1096;-51
2021/09/04 02:15:48;;;;;;;;;;;;;;;24.07;60.92;101035.44;5054315;28;1181;-48
2021/09/04 02:18:15;;;;;;;;;;;;;;;24.08;61.23;101012.81;5054261;28;1071;-49
2021/09/04 02:20:42;;;;;;;;;;;;;;;24.05;60.94;101009.59;5054155;28;1094;-48
2021/09/04 02:23:09;;;;;;;;;;;;;;;24.08;61.52;101010.13;5054101;28;1971;-49
2021/09/04 02:25:35;;;;;;;;;;;;;;;24.09;61.09;101006.41;5054452;28;1073;-48
2021/09/04 02:28:02;;;;;;;;;;;;;;;24.08;60.93;100999.31;5054348;28;1071;-49
2021/09/04 02:30:29;;;;;;;;;;;;;;;24.07;61.11;101011.13;5054064;28;1087;-48
2021/09/04 02:32:55;;;;;;;;;;;;;;;24.05;61.29;101020.41;5054079;28;1181;-48
2021/09/04 02:35:23;;;;;;;;;;;;;;;24.06;61.38;101031.06;5053860;28;1091;-48
2021/09/04 02:37:49;;;;;;;;;;;;;;;24.08;60.97;101034.44;5054243;28;1031;-48
2021/09/04 02:40:16;;;;;;;;;;;;;;;24.06;61.12;101036.47;5054206;28;1084;-49
2021/09/04 02:42:42;;;;;;;;;;;;;;;24.04;61.40;101033.06;5054105;28;1971;-48
2021/09/04 02:45:09;;;;;;;;;;;;;;;24.05;61.19;101020.41;5053701;28;1095;-48
2021/09/04 02:47:36;;;;;;;;;;;;;;;24.07;60.99;101024.63;5053358;28;1099;-48
2021/09/04 02:50:03;;;;;;;;;;;;;;;24.06;60.65;101014.00;5054057;28;1070;-48
2021/09/04 02:52:31;;;;;;;;;;;;;;;24.04;60.78;101003.34;5053961;28;1007;-49
2021/09/04 02:54:57;;;;;;;;;;;;;;;24.03;61.30;101012.47;5053879;28;1050;-48
2021/09/04 02:57:23;;;;;;;;;;;;;;;24.08;60.96;101003.88;5053610;28;1159;-49
2021/09/04 02:59:50;;;;;;;;;;;;;;;24.05;61.15;101009.59;5053557;28;1076;-48
2021/09/04 03:02:16;;;;;;;;;;;;;;;24.05;61.00;101009.59;5063126;28;1977;-49
2021/09/04 03:04:43;;;;;;;;;;;;;;;24.01;61.18;101009.94;5073513;28;1110;-49
2021/09/04 03:07:09;;;;;;;;;;;;;;;24.03;61.17;101001.66;5073547;28;1181;-48
2021/09/04 03:09:37;;;;;;;;;;;;;;;24.01;61.30;100999.13;5073783;28;1069;-48
2021/09/04 03:12:04;;;;;;;;;;;;;;;24.04;60.90;101007.91;5073754;28;1116;-48
2021/09/04 03:14:31;;;;;;;;;;;;;;;24.06;60.65;100995.09;5073757;28;1018;-48
2021/09/04 03:16:57;;;;;;;;;;;;;;;24.06;60.47;101022.94;5073343;28;1079;-49
2021/09/04 03:19:23;;;;;;;;;;;;;;;24.05;60.87;101015.84;5073695;28;1097;-48
2021/09/04 03:21:51;;;;;;;;;;;;;;;24.06;60.80;101028.34;5073589;28;1908;-49
2021/09/04 03:24:17;;;;;;;;;;;;;;;24.02;60.85;101027.00;5073351;28;1087;-48
2021/09/04 03:26:45;;;;;;;;;;;;;;;24.03;60.82;101031.38;5073347;28;1098;-48
2021/09/04 03:29:11;;;;;;;;;;;;;;;24.06;60.77;101041.88;5073533;28;1019;-49
2021/09/04 03:31:38;;;;;;;;;;;;;;;24.06;60.35;101031.06;5073574;28;1011;-48
2021/09/04 03:34:04;;;;;;;;;;;;;;;24.02;60.61;101021.59;5073557;28;1030;-48
2021/09/04 03:36:31;;;;;;;;;;;;;;;24.01;60.72;101019.88;5073529;28;2055;-48
2021/09/04 03:38:57;;;;;;;;;;;;;;;24.05;60.52;101028.50;5073215;28;1102;-48
2021/09/04 03:41:24;;;;;;;;;;;;;;;24.03;60.39;101020.56;5073219;28;1074;-48
2021/09/04 03:43:52;;;;;;;;;;;;;;;24.04;60.88;101027.66;5073390;28;1902;-48
2021/09/04 03:46:18;;;;;;;;;;;;;;;24.00;60.60;101018.19;5073462;28;1007;-49
2021/09/04 03:48:45;;;;;;;;;;;;;;;24.04;60.83;101016.88;5073406;28;994;-49
2021/09/04 03:51:11;;;;;;;;;;;;;;;24.04;60.81;101022.28;5073090;28;1222;-48
2021/09/04 03:53:37;;;;;;;;;;;;;;;24.01;60.90;101009.94;5072984;28;1111;-48
2021/09/04 03:56:04;;;;;;;;;;;;;;;24.02;60.35;101016.19;5073639;28;1078;-48
2021/09/04 03:58:31;;;;;;;;;;;;;;;24.05;60.66;101020.41;5073349;28;1018;-48
2021/09/04 04:00:59;;;;;;;;;;;;;;;24.01;60.78;101023.44;5075522;28;1007;-48
2021/09/04 04:03:25;;;;;;;;;;;;;;;23.99;60.51;101019.19;5076544;28;1975;-49
2021/09/04 04:05:51;;;;;;;;;;;;;;;24.02;60.59;101010.78;5077032;28;1093;-48
2021/09/04 04:08:18;;;;;;;;;;;;;;;23.98;60.75;101012.13;5077062;28;2049;-48
2021/09/04 04:10:44;;;;;;;;;;;;;;;23.97;60.47;101018.50;5076717;28;1078;-49
2021/09/04 04:13:11;;;;;;;;;;;;;;;24.00;60.81;101016.34;5076863;28;998;-48
2021/09/04 04:15:37;;;;;;;;;;;;;;;24.01;60.34;101014.47;5076589;28;1103;-48
2021/09/04 04:18:05;;;;;;;;;;;;;;;23.99;60.89;101008.38;5076820;28;1007;-48
2021/09/04 04:20:32;;;;;;;;;;;;;;;24.00;60.79;101008.22;5076507;28;1094;-48
2021/09/04 04:22:58;;;;;;;;;;;;;;;23.98;60.53;101009.41;5076715;28;1902;-49
2021/09/04 04:25:25;;;;;;;;;;;;;;;23.99;60.63;101002.97;5076726;28;1006;-49
2021/09/04 04:27:51;;;;;;;;;;;;;;;23.99;60.90;101016.50;5076711;28;1064;-48
2021/09/04 04:30:18;;;;;;;;;;;;;;;24.01;60.81;101019.88;5076588;28;994;-49
2021/09/04 04:32:44;;;;;;;;;;;;;;;24.01;60.50;101030.69;5076261;28;1111;-48
2021/09/04 04:35:12;;;;;;;;;;;;;;;24.00;61.31;101029.00;5076573;28;1058;-48
2021/09/04 04:37:39;;;;;;;;;;;;;;;23.99;60.80;101033.56;5076237;28;1170;-49
2021/09/04 04:40:06;;;;;;;;;;;;;;;24.01;61.25;101033.38;5076170;28;1133;-48
2021/09/04 04:42:32;;;;;;;;;;;;;;;24.04;60.52;101034.94;5075961;28;1905;-48
2021/09/04 04:44:59;;;;;;;;;;;;;;;24.05;60.86;101034.75;5076101;28;1170;-48
2021/09/04 04:47:25;;;;;;;;;;;;;;;24.03;61.03;101034.06;5076060;28;1134;-48
2021/09/04 04:49:52;;;;;;;;;;;;;;;24.02;61.04;101033.22;5076298;28;1015;-48
2021/09/04 04:52:19;;;;;;;;;;;;;;;23.97;61.38;101041.00;5076256;28;1001;-48
2021/09/04 04:54:46;;;;;;;;;;;;;;;24.00;61.29;101050.63;5075828;28;1071;-48
2021/09/04 04:57:12;;;;;;;;;;;;;;;24.04;60.79;101056.53;5075853;28;931;-48
2021/09/04 04:59:39;;;;;;;;;;;;;;;24.01;61.16;101060.41;5076189;28;1099;-48
2021/09/04 05:02:05;;;;;;;;;;;;;;;24.05;61.00;101059.06;5075662;28;1351;-49
2021/09/04 05:04:32;;;;;;;;;;;;;;;24.01;60.76;101052.28;5075933;28;1980;-48
2021/09/04 05:06:58;;;;;;;;;;;;;;;24.02;61.58;101043.19;5075866;28;1899;-49
2021/09/04 05:09:26;;;;;;;;;;;;;;;24.02;61.11;101044.03;5075621;28;1067;-48
2021/09/04 05:11:52;;;;;;;;;;;;;;;24.04;61.04;101053.84;5075516;28;1085;-48
2021/09/04 05:14:19;;;;;;;;;;;;;;;24.08;61.49;101039.84;5075882;28;1085;-48
2021/09/04 05:16:45;;;;;;;;;;;;;;;24.08;60.93;101047.94;5075745;28;1084;-49
2021/09/04 05:19:12;;;;;;;;;;;;;;;24.05;61.07;101040.16;5075479;28;1083;-48
2021/09/04 05:21:38;;;;;;;;;;;;;;;24.14;61.12;101047.28;5075715;28;1006;-49
2021/09/04 05:24:05;;;;;;;;;;;;;;;24.14;61.01;101041.88;5075622;28;1911;-48
2021/09/04 05:26:33;;;;;;;;;;;;;;;24.12;61.34;101038.50;5075625;28;1082;-49
2021/09/04 05:29:00;;;;;;;;;;;;;;;24.13;61.22;101024.00;5075504;28;1062;-49
2021/09/04 05:31:26;;;;;;;;;;;;;;;24.13;61.07;101037.50;5075195;28;1110;-48
2021/09/04 05:33:52;;;;;;;;;;;;;;;24.17;60.77;101022.66;5075119;28;1293;-48
2021/09/04 05:36:19;;;;;;;;;;;;;;;24.22;60.96;101036.50;5075105;28;1161;-48
2021/09/04 05:38:45;;;;;;;;;;;;;;;24.24;60.43;101052.56;5075051;28;1074;-49
2021/09/04 05:41:12;;;;;;;;;;;;;;;24.24;61.13;101046.31;5075277;28;1003;-48
2021/09/04 05:43:40;;;;;;;;;;;;;;;24.22;60.80;101039.22;5075189;28;1906;-49
2021/09/04 05:46:06;;;;;;;;;;;;;;;24.21;60.84;101015.06;5075265;28;1081;-48
2021/09/04 05:48:33;;;;;;;;;;;;;;;24.26;60.84;101033.50;5074871;28;1110;-48
2021/09/04 05:50:59;;;;;;;;;;;;;;;24.28;61.02;101039.59;5074843;28;1074;-48
2021/09/04 05:53:26;;;;;;;;;;;;;;;24.26;61.13;101038.91;5075157;28;974;-48
2021/09/04 05:55:52;;;;;;;;;;;;;;;24.30;60.38;101043.81;5074666;28;1102;-49
2021/09/04 05:58:19;;;;;;;;;;;;;;;24.30;60.16;101051.06;5074672;28;1086;-48
2021/09/04 06:00:47;;;;;;;;;;;;;;;24.36;60.73;101053.13;5074909;28;1100;-49
2021/09/04 06:03:13;;;;;;;;;;;;;;;24.31;61.00;101039.25;5074216;28;1918;-48
2021/09/04 06:05:39;;;;;;;;;;;;;;;24.36;60.98;101051.25;5074732;28;1094;-49
2021/09/04 06:08:06;;;;;;;;;;;;;;;24.35;60.57;101043.31;5074488;28;1074;-48
2021/09/04 06:10:32;;;;;;;;;;;;;;;24.36;60.85;101039.59;5074755;28;1084;-48
2021/09/04 06:12:59;;;;;;;;;;;;;;;24.39;60.86;101040.13;5074589;28;1077;-48
2021/09/04 06:15:25;;;;;;;;;;;;;;;24.44;60.90;101050.44;5074657;28;1002;-48
2021/09/04 06:17:53;;;;;;;;;;;;;;;24.42;60.34;101055.16;5074201;28;1471;-49
2021/09/04 06:20:20;;;;;;;;;;;;;;;24.42;60.68;101057.88;5074533;28;1122;-48
2021/09/04 06:22:46;;;;;;;;;;;;;;;24.44;59.98;101052.31;5073478;28;1905;-48
2021/09/04 06:25:13;;;;;;;;;;;;;;;24.45;60.87;101052.13;5074439;28;1062;-48
2021/09/04 06:27:39;;;;;;;;;;;;;;;24.40;60.52;101047.22;5074075;28;1066;-48
2021/09/04 06:30:07;;;;;;;;;;;;;;;24.44;60.88;101057.72;5074282;28;1002;-48
2021/09/04 06:32:33;;;;;;;;;;;;;;;24.46;61.02;101044.88;5056235;28;1103;-48
2021/09/04 06:35:02;;;;;;;;;;;;;;;24.50;60.64;101046.22;5073979;28;1149;-48
2021/09/04 06:37:29;;;;;;;;;;;;;;;24.48;60.11;101049.09;5074252;28;1031;-48
2021/09/04 06:39:55;;;;;;;;;;;;;;;24.48;60.04;101046.41;5074165;28;1059;-48
2021/09/04 06:42:22;;;;;;;;;;;;;;;24.52;59.89;101061.31;5073800;28;1369;-48
2021/09/04 06:44:48;;;;;;;;;;;;;;;24.48;60.51;101051.81;5073797;28;1878;-48
2021/09/04 06:47:14;;;;;;;;;;;;;;;24.53;60.82;101044.09;5074078;28;1006;-48
2021/09/04 06:49:41;;;;;;;;;;;;;;;24.52;60.29;101061.31;5074069;28;1001;-48
2021/09/04 06:52:09;;;;;;;;;;;;;;;24.50;60.27;101049.81;5073704;28;1114;-49
2021/09/04 06:54:35;;;;;;;;;;;;;;;24.52;60.16;101060.47;5073846;28;1169;-48
2021/09/04 06:57:03;;;;;;;;;;;;;;;24.51;60.31;101056.91;5073647;28;1165;-48
2021/09/04 06:59:29;;;;;;;;;;;;;;;24.51;60.42;101064.16;5073622;28;1055;-48
2021/09/04 07:01:55;;;;;;;;;;;;;;;24.54;59.90;101070.09;5073480;28;1426;-49
2021/09/04 07:04:22;;;;;;;;;;;;;;;24.48;60.52;101062.63;5073765;28;1967;-48
2021/09/04 07:06:48;;;;;;;;;;;;;;;24.52;60.75;101074.81;5073753;28;1054;-48
2021/09/04 07:09:16;;;;;;;;;;;;;;;24.51;60.00;101048.81;5073801;28;1077;-48
2021/09/04 07:11:43;;;;;;;;;;;;;;;24.56;60.10;101067.22;5073797;28;1007;-48
2021/09/04 07:14:09;;;;;;;;;;;;;;;24.54;61.07;101053.88;5073780;28;1084;-48
2021/09/04 07:16:36;;;;;;;;;;;;;;;24.56;60.99;101059.97;5073714;28;1109;-48
2021/09/04 07:19:02;;;;;;;;;;;;;;;24.55;60.94;101057.41;5066534;28;1580;-48
2021/09/04 07:21:29;;;;;;;;;;;;;;;24.53;60.97;101052.19;5052925;28;1193;-49
2021/09/04 07:23:55;;;;;;;;;;;;;;;24.51;60.43;101056.06;5053253;28;1902;-48
2021/09/04 07:26:23;;;;;;;;;;;;;;;24.54;60.44;101053.88;5053537;28;1056;-48
2021/09/04 07:28:49;;;;;;;;;;;;;;;24.48;60.88;101049.09;5053268;28;1071;-48
2021/09/04 07:31:16;;;;;;;;;;;;;;;24.54;60.63;101053.88;5053603;28;991;-47
2021/09/04 07:33:42;;;;;;;;;;;;;;;24.52;60.90;101050.50;5053639;28;1006;-48
2021/09/04 07:36:10;;;;;;;;;;;;;;;24.50;60.51;101051.63;5055628;28;1352;-48
2021/09/04 07:38:36;;;;;;;;;;;;;;;24.55;60.96;101050.16;5056579;28;1142;-48
2021/09/04 07:41:03;;;;;;;;;;;;;;;24.55;60.83;101050.16;5057519;28;1011;-49
2021/09/04 07:43:31;;;;;;;;;;;;;;;24.51;60.00;101046.09;5057475;28;2014;-48
2021/09/04 07:45:57;;;;;;;;;;;;;;;24.54;60.38;101059.28;5057165;28;1118;-48
2021/09/04 07:48:25;;;;;;;;;;;;;;;24.52;60.28;101050.50;5056230;28;1879;-49
2021/09/04 07:50:51;;;;;;;;;;;;;;;24.55;60.25;101049.31;5057363;28;1058;-49
2021/09/04 07:53:18;;;;;;;;;;;;;;;24.53;61.03;101052.19;5056754;28;1484;-48
2021/09/04 07:55:45;;;;;;;;;;;;;;;24.54;60.24;101053.88;5054491;28;1330;-48
2021/09/04 07:58:11;;;;;;;;;;;;;;;24.58;61.00;101071.44;5057246;28;1088;-48
2021/09/04 08:00:39;;;;;;;;;;;;;;;24.56;60.93;101054.56;5055761;28;1684;-48
2021/09/04 08:03:05;;;;;;;;;;;;;;;24.56;60.76;101053.72;5052085;28;1309;-48
2021/09/04 08:05:32;;;;;;;;;;;;;;;24.58;60.25;101048.97;5050881;28;1975;-49
2021/09/04 08:07:58;;;;;;;;;;;;;;;24.59;60.79;101054.22;5037119;28;999;-49
2021/09/04 08:10:25;;;;;;;;;;;;;;;24.57;60.96;101048.16;5036547;28;1078;-49
2021/09/04 08:12:51;;;;;;;;;;;;;;;24.56;60.56;101035.63;5035271;28;1059;-49
2021/09/04 08:15:18;;;;;;;;;;;;;;;24.57;61.14;101031.06;5036541;28;1183;-48
2021/09/04 08:17:45;;;;;;;;;;;;;;;24.58;61.04;101047.13;5036903;28;1077;-48
2021/09/04 08:20:12;;;;;;;;;;;;;;;24.56;60.27;101045.59;5036598;28;953;-48
2021/09/04 08:22:39;;;;;;;;;;;;;;;24.58;60.61;101039.00;5036551;28;1103;-48
2021/09/04 08:25:06;;;;;;;;;;;;;;;24.58;60.74;101038.16;5036741;28;1979;-48
2021/09/04 08:27:32;;;;;;;;;;;;;;;24.58;60.34;101033.59;5036532;28;1142;-48
2021/09/04 08:29:59;;;;;;;;;;;;;;;24.56;60.66;101027.50;5036679;28;1068;-48
2021/09/04 08:32:25;;;;;;;;;;;;;;;24.59;61.23;101031.72;5036679;28;1071;-48
2021/09/04 08:34:53;;;;;;;;;;;;;;;24.54;60.65;101020.59;5036666;28;1055;-48
2021/09/04 08:37:20;;;;;;;;;;;;;;;24.60;61.24;101025.31;5036309;28;954;-48
2021/09/04 08:39:46;;;;;;;;;;;;;;;24.60;61.24;101019.91;5036563;28;1055;-48
2021/09/04 08:42:13;;;;;;;;;;;;;;;24.59;60.81;101046.13;5036440;28;1008;-48
2021/09/04 08:44:39;;;;;;;;;;;;;;;24.57;61.08;101022.94;5036108;28;1906;-48
2021/09/04 08:47:06;;;;;;;;;;;;;;;24.56;60.49;101030.22;5035410;28;1151;-48
2021/09/04 08:49:34;;;;;;;;;;;;;;;24.55;60.84;101023.13;5036372;28;1006;-48
2021/09/04 08:52:02;;;;;;;;;;;;;;;24.57;60.45;101012.13;5036350;28;962;-48
2021/09/04 08:54:28;;;;;;;;;;;;;;;24.60;60.79;101020.75;5036459;28;1087;-48
2021/09/04 08:56:54;;;;;;;;;;;;;;;24.61;61.26;101025.16;5036236;28;1080;-48
2021/09/04 08:59:21;;;;;;;;;;;;;;;24.65;61.30;101016.72;5036779;28;994;-48
2021/09/04 09:01:47;;;;;;;;;;;;;;;24.60;60.57;101020.75;5035766;28;1427;-49
2021/09/04 09:04:15;;;;;;;;;;;;;;;24.58;60.81;101014.66;5035686;28;1989;-48
2021/09/04 09:06:41;;;;;;;;;;;;;;;24.61;60.88;101017.06;5035707;28;1096;-48
2021/09/04 09:09:19;;;;;;;;;;;;;;;24.60;60.65;101025.31;5036009;28;1062;-48
2021/09/04 09:11:47;;;;;;;;;;;;;;;24.63;61.30;101018.72;5035983;28;998;-48
2021/09/04 09:14:13;;;;;;;;;;;;;;;24.59;60.93;101019.09;5035647;28;1091;-48
2021/09/04 09:16:48;;;;;;;;;;;;;;;24.63;61.20;101014.19;5035885;28;1027;-48
2021/09/04 09:19:15;;;;;;;;;;;;;;;24.63;61.25;101032.25;5035792;28;1082;-48
2021/09/04 09:21:41;;;;;;;;;;;;;;;24.64;60.87;101025.84;5035769;28;992;-48
2021/09/04 09:24:09;;;;;;;;;;;;;;;24.64;61.33;101025.84;5035678;28;1906;-48
2021/09/04 09:26:45;;;;;;;;;;;;;;;24.60;60.76;101015.34;5035710;28;998;-48
2021/09/04 09:29:16;;;;;;;;;;;;;;;24.65;61.29;101016.72;5035376;28;1081;-48
2021/09/04 09:31:42;;;;;;;;;;;;;;;24.63;60.87;101016.03;5035663;28;1196;-48
2021/09/04 09:34:09;;;;;;;;;;;;;;;24.63;61.49;101005.22;5035562;28;1031;-48
2021/09/04 09:36:46;;;;;;;;;;;;;;;24.63;61.02;101029.56;5035496;28;1077;-48
2021/09/04 09:39:13;;;;;;;;;;;;;;;24.64;60.71;101006.91;5035486;28;990;-48
2021/09/04 09:41:46;;;;;;;;;;;;;;;24.63;60.45;101002.50;5035379;28;999;-49
2021/09/04 09:44:17;;;;;;;;;;;;;;;24.65;60.73;101011.28;5035300;28;1910;-48
2021/09/04 09:46:47;;;;;;;;;;;;;;;24.64;61.35;100999.66;5034998;28;1095;-48
2021/09/04 09:49:13;;;;;;;;;;;;;;;24.67;60.38;101001.16;5035285;28;1019;-48
2021/09/04 09:51:40;;;;;;;;;;;;;;;24.67;60.41;101004.72;5035208;28;1096;-48
2021/09/04 09:54:07;;;;;;;;;;;;;;;24.69;60.83;100997.28;5035089;28;1078;-48
2021/09/04 09:56:33;;;;;;;;;;;;;;;24.71;60.39;101011.50;5035103;28;1082;-48
2021/09/04 09:59:01;;;;;;;;;;;;;;;24.71;60.52;100999.81;5034022;28;998;-48
2021/09/04 10:01:28;;;;;;;;;;;;;;;24.71;60.44;100997.09;5034699;28;1463;-49
2021/09/04 10:03:55;;;;;;;;;;;;;;;24.72;60.42;100985.28;5034607;28;1902;-48
2021/09/04 10:06:22;;;;;;;;;;;;;;;24.71;60.37;101002.50;5034876;28;1002;-48
2021/09/04 10:08:48;;;;;;;;;;;;;;;24.72;60.28;100990.69;5034923;28;994;-48
2021/09/04 10:11:15;;;;;;;;;;;;;;;24.73;60.91;100987.84;5034846;28;1028;-49
2021/09/04 10:13:42;;;;;;;;;;;;;;;24.73;61.13;100998.66;5034687;28;992;-49
2021/09/04 10:16:10;;;;;;;;;;;;;;;24.74;60.32;100999.50;5034738;28;1089;-48
2021/09/04 10:18:39;;;;;;;;;;;;;;;24.77;61.07;100985.63;5034640;28;1080;-48
2021/09/04 10:21:10;;;;;;;;;;;;;;;24.75;61.04;100983.09;5034664;28;1074;-48
2021/09/04 10:23:37;;;;;;;;;;;;;;;24.74;60.41;100967.03;5034315;28;1072;-48
2021/09/04 10:26:18;;;;;;;;;;;;;;;24.74;60.90;100961.63;5034184;28;1971;-48
2021/09/04 10:28:55;;;;;;;;;;;;;;;24.77;61.00;100980.19;5034101;28;2010;-48
2021/09/04 10:31:40;;;;;;;;;;;;;;;24.75;60.29;100977.69;5034096;28;1154;-48
2021/09/04 10:34:10;;;;;;;;;;;;;;;24.79;60.62;100986.31;5040908;28;1703;-48
2021/09/04 10:36:37;;;;;;;;;;;;;;;24.73;60.47;100981.56;5054255;28;994;-48
2021/09/04 10:39:05;;;;;;;;;;;;;;;24.76;60.35;101000.16;5053909;28;1175;-48
2021/09/04 10:41:35;;;;;;;;;;;;;;;24.74;61.36;100984.09;5053837;28;1075;-49
2021/09/04 10:44:05;;;;;;;;;;;;;;;24.70;60.49;100962.97;5054037;28;1898;-48
2021/09/04 10:46:31;;;;;;;;;;;;;;;24.72;60.34;100963.66;5052437;28;1075;-49
2021/09/04 10:49:01;;;;;;;;;;;;;;;24.72;60.79;100975.31;5053351;28;1070;-48
2021/09/04 10:51:46;;;;;;;;;;;;;;;24.78;60.62;100965.69;5053763;28;1082;-49
2021/09/04 10:54:33;;;;;;;;;;;;;;;24.76;60.67;100951.47;5053632;28;1119;-49
2021/09/04 10:57:12;;;;;;;;;;;;;;;24.75;60.77;100961.47;5053608;28;2254;-48
2021/09/04 10:59:58;;;;;;;;;;;;;;;24.76;60.40;100940.66;5053614;28;1119;-48
2021/09/04 11:02:38;;;;;;;;;;;;;;;24.74;60.74;100962.47;5053281;28;1424;-48
2021/09/04 11:05:19;;;;;;;;;;;;;;;24.78;60.75;100952.16;5053788;28;1989;-48
2021/09/04 11:07:47;;;;;;;;;;;;;;;24.74;60.52;100946.25;5052982;28;2980;-48
2021/09/04 11:10:22;;;;;;;;;;;;;;;24.72;60.50;100931.19;5053151;28;1071;-48
2021/09/04 11:13:03;;;;;;;;;;;;;;;24.74;61.14;100948.09;5053448;28;1102;-49
2021/09/04 11:15:31;;;;;;;;;;;;;;;24.75;61.25;100930.84;5053749;28;994;-48
2021/09/04 11:17:57;;;;;;;;;;;;;;;24.80;60.77;100942.00;5053226;28;1822;-49
2021/09/04 11:20:25;;;;;;;;;;;;;;;24.77;60.73;100928.81;5053623;28;1049;-48
2021/09/04 11:22:54;;;;;;;;;;;;;;;24.74;60.73;100924.59;5053628;28;1088;-48
2021/09/04 11:25:21;;;;;;;;;;;;;;;24.76;60.80;100932.56;5053499;28;1910;-49
2021/09/04 11:27:47;;;;;;;;;;;;;;;24.79;60.45;100927.66;5053321;28;1071;-48
2021/09/04 11:30:15;;;;;;;;;;;;;;;24.76;61.07;100940.66;5053202;28;1086;-48
2021/09/04 11:32:42;;;;;;;;;;;;;;;24.77;60.46;100942.34;5053614;28;963;-48
2021/09/04 11:35:09;;;;;;;;;;;;;;;24.77;61.00;100937.81;5053266;28;1181;-48
2021/09/04 11:37:36;;;;;;;;;;;;;;;24.80;61.24;100939.31;5053478;28;1104;-49
2021/09/04 11:40:08;;;;;;;;;;;;;;;24.75;61.13;100949.78;5053453;28;1044;-49
2021/09/04 11:42:36;;;;;;;;;;;;;;;24.78;60.47;100930.53;5053362;28;1093;-48
2021/09/04 11:45:04;;;;;;;;;;;;;;;24.76;60.84;100929.84;5053391;28;1906;-48
2021/09/04 11:47:31;;;;;;;;;;;;;;;24.80;60.45;100925.78;5053930;28;2049;-48
2021/09/04 11:49:58;;;;;;;;;;;;;;;24.77;60.38;100934.22;5052645;28;1706;-49
2021/09/04 11:52:28;;;;;;;;;;;;;;;24.77;60.52;100924.28;5053034;28;1083;-48
2021/09/04 11:55:03;;;;;;;;;;;;;;;24.81;61.46;100932.91;5053180;28;1069;-48
2021/09/04 11:57:33;;;;;;;;;;;;;;;24.77;60.24;100926.13;5053320;28;1069;-48
2021/09/04 12:00:00;;;;;;;;;;;;;;;24.76;60.92;100927.97;5053044;28;1088;-48
2021/09/04 12:02:27;;;;;;;;;;;;;;;24.74;61.23;100915.66;5052823;28;1426;-48
2021/09/04 12:04:54;;;;;;;;;;;;;;;24.79;60.48;100932.22;5052986;28;1972;-48
2021/09/04 12:07:20;;;;;;;;;;;;;;;24.76;60.98;100927.16;5052747;28;1173;-48
2021/09/04 12:09:47;;;;;;;;;;;;;;;24.75;60.57;100898.38;5052859;28;1111;-48
2021/09/04 12:12:13;;;;;;;;;;;;;;;24.78;60.70;100895.34;5053137;28;990;-48
2021/09/04 12:14:41;;;;;;;;;;;;;;;24.73;60.53;100881.50;5052454;28;1192;-48
2021/09/04 12:17:08;;;;;;;;;;;;;;;24.79;60.95;100892.50;5052256;28;1047;-48
2021/09/04 12:19:37;;;;;;;;;;;;;;;24.76;60.44;100884.72;5053988;28;1148;-48
2021/09/04 12:22:04;;;;;;;;;;;;;;;24.76;60.55;100879.28;5054766;28;1644;-48
2021/09/04 12:24:31;;;;;;;;;;;;;;;24.72;60.50;100877.13;5056503;28;1155;-48
2021/09/04 12:26:58;;;;;;;;;;;;;;;24.71;61.68;100881.69;5056389;28;1969;-48
2021/09/04 12:29:28;;;;;;;;;;;;;;;24.66;61.27;100888.63;5056699;28;1101;-49
2021/09/04 12:32:05;;;;;;;;;;;;;;;24.67;61.03;100874.94;5056537;28;998;-49
2021/09/04 12:34:31;;;;;;;;;;;;;;;24.69;60.83;100893.66;5056579;28;1054;-49
2021/09/04 12:36:58;;;;;;;;;;;;;;;24.66;60.86;100897.56;5056622;28;1062;-48
2021/09/04 12:39:25;;;;;;;;;;;;;;;24.68;61.18;100883.88;5056238;28;1178;-48
2021/09/04 12:41:59;;;;;;;;;;;;;;;24.67;61.31;100879.47;5056101;28;1161;-49
2021/09/04 12:44:35;;;;;;;;;;;;;;;24.66;61.09;100870.53;5056812;28;1175;-49
2021/09/04 12:47:04;;;;;;;;;;;;;;;24.64;60.77;100871.72;5056316;28;1957;-48
2021/09/04 12:49:31;;;;;;;;;;;;;;;24.65;61.62;100865.28;5055961;28;1138;-49